sensor_id;sensor_type;location;lat;lon;timestamp;P1;durP1;ratioP1;P2;durP2;ratioP2
6131;SDS011;3097;42.692;23.278;2023-06-14T00:00:10;4.97;;;4.57;;
6131;SDS011;3097;42.692;23.278;2023-06-14T00:02:38;5.40;;;5.00;;
6131;SDS011;3097;42.692;23.278;2023-06-14T00:05:07;5.03;;;4.57;;
6131;SDS011;3097;42.692;23.278;2023-06-14T00:07:38;5.33;;;4.90;;
6131;SDS011;3097;42.692;23.278;2023-06-14T00:10:08;5.53;;;5.10;;
6131;SDS011;3097;42.692;23.278;2023-06-14T00:12:34;6.23;;;4.80;;
6131;SDS011;3097;42.692;23.278;2023-06-14T00:15:01;5.17;;;4.67;;
6131;SDS011;3097;42.692;23.278;2023-06-14T00:17:27;5.10;;;4.70;;
6131;SDS011;3097;42.692;23.278;2023-06-14T00:19:56;4.53;;;4.23;;
6131;SDS011;3097;42.692;23.278;2023-06-14T00:22:22;5.40;;;5.00;;
6131;SDS011;3097;42.692;23.278;2023-06-14T00:24:54;5.73;;;4.37;;
6131;SDS011;3097;42.692;23.278;2023-06-14T00:27:19;5.27;;;4.77;;
6131;SDS011;3097;42.692;23.278;2023-06-14T00:29:45;6.40;;;5.30;;
6131;SDS011;3097;42.692;23.278;2023-06-14T00:32:10;6.47;;;5.57;;
6131;SDS011;3097;42.692;23.278;2023-06-14T00:34:36;6.17;;;5.67;;
6131;SDS011;3097;42.692;23.278;2023-06-14T00:37:01;6.67;;;5.17;;
6131;SDS011;3097;42.692;23.278;2023-06-14T00:39:27;5.83;;;5.33;;
6131;SDS011;3097;42.692;23.278;2023-06-14T00:41:52;5.63;;;5.13;;
6131;SDS011;3097;42.692;23.278;2023-06-14T00:44:18;6.23;;;4.37;;
6131;SDS011;3097;42.692;23.278;2023-06-14T00:46:46;5.40;;;4.90;;
6131;SDS011;3097;42.692;23.278;2023-06-14T00:49:15;4.90;;;4.43;;
6131;SDS011;3097;42.692;23.278;2023-06-14T00:51:42;5.90;;;5.40;;
6131;SDS011;3097;42.692;23.278;2023-06-14T00:54:08;5.60;;;5.10;;
6131;SDS011;3097;42.692;23.278;2023-06-14T00:56:35;5.70;;;5.13;;
6131;SDS011;3097;42.692;23.278;2023-06-14T00:59:01;5.00;;;4.60;;
6131;SDS011;3097;42.692;23.278;2023-06-14T01:01:28;6.00;;;4.63;;
6131;SDS011;3097;42.692;23.278;2023-06-14T01:03:57;5.93;;;5.23;;
6131;SDS011;3097;42.692;23.278;2023-06-14T01:06:24;5.27;;;4.80;;
6131;SDS011;3097;42.692;23.278;2023-06-14T01:09:01;6.03;;;5.40;;
6131;SDS011;3097;42.692;23.278;2023-06-14T01:11:39;6.23;;;5.03;;
6131;SDS011;3097;42.692;23.278;2023-06-14T01:14:28;6.20;;;4.87;;
6131;SDS011;3097;42.692;23.278;2023-06-14T01:16:56;5.03;;;4.63;;
6131;SDS011;3097;42.692;23.278;2023-06-14T01:19:25;6.63;;;4.90;;
6131;SDS011;3097;42.692;23.278;2023-06-14T01:21:53;4.77;;;4.33;;
6131;SDS011;3097;42.692;23.278;2023-06-14T01:24:20;4.87;;;4.47;;
6131;SDS011;3097;42.692;23.278;2023-06-14T01:26:50;5.50;;;4.53;;
6131;SDS011;3097;42.692;23.278;2023-06-14T01:29:21;5.50;;;4.90;;
6131;SDS011;3097;42.692;23.278;2023-06-14T01:31:48;5.20;;;4.63;;
6131;SDS011;3097;42.692;23.278;2023-06-14T01:34:14;5.20;;;4.80;;
6131;SDS011;3097;42.692;23.278;2023-06-14T01:36:40;6.80;;;5.07;;
6131;SDS011;3097;42.692;23.278;2023-06-14T01:39:08;5.30;;;4.80;;
6131;SDS011;3097;42.692;23.278;2023-06-14T01:41:35;5.73;;;5.13;;
6131;SDS011;3097;42.692;23.278;2023-06-14T01:44:01;5.10;;;4.70;;
6131;SDS011;3097;42.692;23.278;2023-06-14T01:46:28;5.40;;;4.67;;
6131;SDS011;3097;42.692;23.278;2023-06-14T01:48:54;7.37;;;5.23;;
6131;SDS011;3097;42.692;23.278;2023-06-14T01:51:19;5.27;;;4.87;;
6131;SDS011;3097;42.692;23.278;2023-06-14T01:53:45;5.80;;;5.23;;
6131;SDS011;3097;42.692;23.278;2023-06-14T01:56:11;5.37;;;4.87;;
6131;SDS011;3097;42.692;23.278;2023-06-14T01:58:37;6.17;;;5.57;;
6131;SDS011;3097;42.692;23.278;2023-06-14T02:01:02;5.60;;;5.10;;
6131;SDS011;3097;42.692;23.278;2023-06-14T02:03:28;5.03;;;4.63;;
6131;SDS011;3097;42.692;23.278;2023-06-14T02:05:53;5.77;;;5.17;;
6131;SDS011;3097;42.692;23.278;2023-06-14T02:08:20;6.07;;;5.57;;
6131;SDS011;3097;42.692;23.278;2023-06-14T02:10:45;5.80;;;5.30;;
6131;SDS011;3097;42.692;23.278;2023-06-14T02:13:11;5.97;;;5.37;;
6131;SDS011;3097;42.692;23.278;2023-06-14T02:15:37;6.20;;;5.60;;
6131;SDS011;3097;42.692;23.278;2023-06-14T02:18:02;7.47;;;5.67;;
6131;SDS011;3097;42.692;23.278;2023-06-14T02:20:28;6.47;;;5.13;;
6131;SDS011;3097;42.692;23.278;2023-06-14T02:22:54;5.70;;;5.30;;
6131;SDS011;3097;42.692;23.278;2023-06-14T02:25:20;5.63;;;5.20;;
6131;SDS011;3097;42.692;23.278;2023-06-14T02:27:45;5.23;;;4.90;;
6131;SDS011;3097;42.692;23.278;2023-06-14T02:30:11;6.70;;;5.00;;
6131;SDS011;3097;42.692;23.278;2023-06-14T02:32:37;6.37;;;5.53;;
6131;SDS011;3097;42.692;23.278;2023-06-14T02:35:03;5.10;;;4.70;;
6131;SDS011;3097;42.692;23.278;2023-06-14T02:37:29;6.03;;;5.07;;
6131;SDS011;3097;42.692;23.278;2023-06-14T02:39:55;5.47;;;5.07;;
6131;SDS011;3097;42.692;23.278;2023-06-14T02:42:21;5.30;;;4.90;;
6131;SDS011;3097;42.692;23.278;2023-06-14T02:44:46;6.60;;;5.17;;
6131;SDS011;3097;42.692;23.278;2023-06-14T02:47:16;5.13;;;4.73;;
6131;SDS011;3097;42.692;23.278;2023-06-14T02:49:42;5.40;;;4.70;;
6131;SDS011;3097;42.692;23.278;2023-06-14T02:52:08;5.20;;;4.80;;
6131;SDS011;3097;42.692;23.278;2023-06-14T02:54:34;5.27;;;4.87;;
6131;SDS011;3097;42.692;23.278;2023-06-14T02:56:59;5.03;;;4.63;;
6131;SDS011;3097;42.692;23.278;2023-06-14T02:59:25;4.60;;;4.20;;
6131;SDS011;3097;42.692;23.278;2023-06-14T03:01:51;4.93;;;4.53;;
6131;SDS011;3097;42.692;23.278;2023-06-14T03:04:16;5.40;;;4.87;;
6131;SDS011;3097;42.692;23.278;2023-06-14T03:06:42;5.03;;;4.63;;
6131;SDS011;3097;42.692;23.278;2023-06-14T03:09:09;5.43;;;4.93;;
6131;SDS011;3097;42.692;23.278;2023-06-14T03:11:36;5.30;;;4.63;;
6131;SDS011;3097;42.692;23.278;2023-06-14T03:14:01;4.97;;;4.57;;
6131;SDS011;3097;42.692;23.278;2023-06-14T03:16:29;4.90;;;4.60;;
6131;SDS011;3097;42.692;23.278;2023-06-14T03:18:55;7.17;;;5.20;;
6131;SDS011;3097;42.692;23.278;2023-06-14T03:21:20;5.33;;;4.90;;
6131;SDS011;3097;42.692;23.278;2023-06-14T03:23:46;23.17;;;13.57;;
6131;SDS011;3097;42.692;23.278;2023-06-14T03:26:13;35.20;;;20.53;;
6131;SDS011;3097;42.692;23.278;2023-06-14T03:28:40;8.57;;;6.70;;
6131;SDS011;3097;42.692;23.278;2023-06-14T03:31:06;7.50;;;5.53;;
6131;SDS011;3097;42.692;23.278;2023-06-14T03:33:32;5.77;;;5.00;;
6131;SDS011;3097;42.692;23.278;2023-06-14T03:35:57;6.17;;;5.67;;
6131;SDS011;3097;42.692;23.278;2023-06-14T03:38:22;5.20;;;4.80;;
6131;SDS011;3097;42.692;23.278;2023-06-14T03:40:48;5.43;;;5.03;;
6131;SDS011;3097;42.692;23.278;2023-06-14T03:43:14;6.90;;;5.50;;
6131;SDS011;3097;42.692;23.278;2023-06-14T03:45:39;6.23;;;5.00;;
6131;SDS011;3097;42.692;23.278;2023-06-14T03:48:05;5.70;;;5.10;;
6131;SDS011;3097;42.692;23.278;2023-06-14T03:50:32;5.13;;;4.73;;
6131;SDS011;3097;42.692;23.278;2023-06-14T03:52:58;4.70;;;4.30;;
6131;SDS011;3097;42.692;23.278;2023-06-14T03:55:23;5.43;;;4.80;;
6131;SDS011;3097;42.692;23.278;2023-06-14T03:57:51;5.20;;;4.70;;
6131;SDS011;3097;42.692;23.278;2023-06-14T04:00:17;4.77;;;4.37;;
6131;SDS011;3097;42.692;23.278;2023-06-14T04:02:43;5.53;;;4.70;;
6131;SDS011;3097;42.692;23.278;2023-06-14T04:05:10;7.13;;;4.40;;
6131;SDS011;3097;42.692;23.278;2023-06-14T04:07:35;5.17;;;4.80;;
6131;SDS011;3097;42.692;23.278;2023-06-14T04:10:10;5.23;;;4.83;;
6131;SDS011;3097;42.692;23.278;2023-06-14T04:12:37;4.83;;;4.43;;
6131;SDS011;3097;42.692;23.278;2023-06-14T04:15:03;5.57;;;5.07;;
6131;SDS011;3097;42.692;23.278;2023-06-14T04:17:31;5.03;;;4.63;;
6131;SDS011;3097;42.692;23.278;2023-06-14T04:20:00;5.27;;;4.87;;
6131;SDS011;3097;42.692;23.278;2023-06-14T04:22:29;5.20;;;4.80;;
6131;SDS011;3097;42.692;23.278;2023-06-14T04:24:55;5.80;;;5.30;;
6131;SDS011;3097;42.692;23.278;2023-06-14T04:27:25;5.03;;;4.63;;
6131;SDS011;3097;42.692;23.278;2023-06-14T04:29:54;6.03;;;5.43;;
6131;SDS011;3097;42.692;23.278;2023-06-14T04:32:27;5.70;;;5.23;;
6131;SDS011;3097;42.692;23.278;2023-06-14T04:34:55;6.83;;;5.40;;
6131;SDS011;3097;42.692;23.278;2023-06-14T04:37:21;5.60;;;5.07;;
6131;SDS011;3097;42.692;23.278;2023-06-14T04:39:47;5.47;;;5.07;;
6131;SDS011;3097;42.692;23.278;2023-06-14T04:42:14;5.20;;;4.77;;
6131;SDS011;3097;42.692;23.278;2023-06-14T04:44:42;4.30;;;4.00;;
6131;SDS011;3097;42.692;23.278;2023-06-14T04:47:09;5.00;;;4.50;;
6131;SDS011;3097;42.692;23.278;2023-06-14T04:49:35;5.60;;;5.13;;
6131;SDS011;3097;42.692;23.278;2023-06-14T04:52:00;5.20;;;4.80;;
6131;SDS011;3097;42.692;23.278;2023-06-14T04:54:26;5.10;;;4.70;;
6131;SDS011;3097;42.692;23.278;2023-06-14T04:56:53;4.97;;;4.60;;
6131;SDS011;3097;42.692;23.278;2023-06-14T04:59:20;5.03;;;4.73;;
6131;SDS011;3097;42.692;23.278;2023-06-14T05:01:50;5.47;;;5.07;;
6131;SDS011;3097;42.692;23.278;2023-06-14T05:04:16;5.50;;;5.10;;
6131;SDS011;3097;42.692;23.278;2023-06-14T05:06:43;5.33;;;4.70;;
6131;SDS011;3097;42.692;23.278;2023-06-14T05:09:10;5.70;;;5.30;;
6131;SDS011;3097;42.692;23.278;2023-06-14T05:11:36;5.30;;;4.90;;
6131;SDS011;3097;42.692;23.278;2023-06-14T05:14:02;7.37;;;6.03;;
6131;SDS011;3097;42.692;23.278;2023-06-14T05:16:27;7.27;;;6.40;;
6131;SDS011;3097;42.692;23.278;2023-06-14T05:18:54;7.40;;;6.10;;
6131;SDS011;3097;42.692;23.278;2023-06-14T05:21:20;6.83;;;5.90;;
6131;SDS011;3097;42.692;23.278;2023-06-14T05:23:45;6.40;;;5.60;;
6131;SDS011;3097;42.692;23.278;2023-06-14T05:26:11;8.03;;;5.90;;
6131;SDS011;3097;42.692;23.278;2023-06-14T05:28:36;6.67;;;6.03;;
6131;SDS011;3097;42.692;23.278;2023-06-14T05:31:02;6.73;;;6.13;;
6131;SDS011;3097;42.692;23.278;2023-06-14T05:33:27;6.33;;;5.73;;
6131;SDS011;3097;42.692;23.278;2023-06-14T05:35:53;6.60;;;6.10;;
6131;SDS011;3097;42.692;23.278;2023-06-14T05:38:18;6.63;;;6.00;;
6131;SDS011;3097;42.692;23.278;2023-06-14T05:40:44;6.33;;;5.83;;
6131;SDS011;3097;42.692;23.278;2023-06-14T05:43:10;6.50;;;5.90;;
6131;SDS011;3097;42.692;23.278;2023-06-14T05:45:35;7.67;;;6.87;;
6131;SDS011;3097;42.692;23.278;2023-06-14T05:48:01;7.13;;;6.50;;
6131;SDS011;3097;42.692;23.278;2023-06-14T05:50:26;8.53;;;7.10;;
6131;SDS011;3097;42.692;23.278;2023-06-14T05:52:52;6.67;;;6.00;;
6131;SDS011;3097;42.692;23.278;2023-06-14T05:55:19;6.30;;;5.70;;
6131;SDS011;3097;42.692;23.278;2023-06-14T05:57:45;10.07;;;6.80;;
6131;SDS011;3097;42.692;23.278;2023-06-14T06:00:10;7.73;;;6.93;;
6131;SDS011;3097;42.692;23.278;2023-06-14T06:02:39;6.13;;;5.63;;
6131;SDS011;3097;42.692;23.278;2023-06-14T06:05:06;7.73;;;6.73;;
6131;SDS011;3097;42.692;23.278;2023-06-14T06:07:31;7.67;;;6.97;;
6131;SDS011;3097;42.692;23.278;2023-06-14T06:09:57;11.17;;;9.13;;
6131;SDS011;3097;42.692;23.278;2023-06-14T06:12:22;11.43;;;8.87;;
6131;SDS011;3097;42.692;23.278;2023-06-14T06:14:48;8.60;;;7.77;;
6131;SDS011;3097;42.692;23.278;2023-06-14T06:17:13;7.83;;;7.13;;
6131;SDS011;3097;42.692;23.278;2023-06-14T06:19:39;10.47;;;6.67;;
6131;SDS011;3097;42.692;23.278;2023-06-14T06:22:05;9.10;;;7.60;;
6131;SDS011;3097;42.692;23.278;2023-06-14T06:24:31;9.70;;;8.00;;
6131;SDS011;3097;42.692;23.278;2023-06-14T06:26:57;8.53;;;7.73;;
6131;SDS011;3097;42.692;23.278;2023-06-14T06:29:22;9.43;;;7.37;;
6131;SDS011;3097;42.692;23.278;2023-06-14T06:31:48;10.10;;;7.40;;
6131;SDS011;3097;42.692;23.278;2023-06-14T06:34:13;9.67;;;7.83;;
6131;SDS011;3097;42.692;23.278;2023-06-14T06:36:38;9.23;;;7.60;;
6131;SDS011;3097;42.692;23.278;2023-06-14T06:39:04;9.20;;;8.30;;
6131;SDS011;3097;42.692;23.278;2023-06-14T06:41:35;8.23;;;7.43;;
6131;SDS011;3097;42.692;23.278;2023-06-14T06:44:02;8.33;;;7.57;;
6131;SDS011;3097;42.692;23.278;2023-06-14T06:46:28;8.83;;;7.53;;
6131;SDS011;3097;42.692;23.278;2023-06-14T06:48:53;9.23;;;8.23;;
6131;SDS011;3097;42.692;23.278;2023-06-14T06:51:19;8.60;;;7.73;;
6131;SDS011;3097;42.692;23.278;2023-06-14T06:53:51;10.67;;;8.50;;
6131;SDS011;3097;42.692;23.278;2023-06-14T06:56:20;9.97;;;8.50;;
6131;SDS011;3097;42.692;23.278;2023-06-14T06:58:51;10.20;;;8.17;;
6131;SDS011;3097;42.692;23.278;2023-06-14T07:01:17;9.87;;;8.00;;
6131;SDS011;3097;42.692;23.278;2023-06-14T07:03:44;8.47;;;7.57;;
6131;SDS011;3097;42.692;23.278;2023-06-14T07:06:10;11.03;;;8.33;;
6131;SDS011;3097;42.692;23.278;2023-06-14T07:08:36;8.53;;;7.83;;
6131;SDS011;3097;42.692;23.278;2023-06-14T07:11:03;14.13;;;10.80;;
6131;SDS011;3097;42.692;23.278;2023-06-14T07:13:30;11.53;;;9.60;;
6131;SDS011;3097;42.692;23.278;2023-06-14T07:15:56;9.67;;;8.77;;
6131;SDS011;3097;42.692;23.278;2023-06-14T07:18:23;9.23;;;8.33;;
6131;SDS011;3097;42.692;23.278;2023-06-14T07:20:48;10.57;;;8.90;;
6131;SDS011;3097;42.692;23.278;2023-06-14T07:23:14;12.57;;;8.10;;
6131;SDS011;3097;42.692;23.278;2023-06-14T07:25:39;10.57;;;9.47;;
6131;SDS011;3097;42.692;23.278;2023-06-14T07:28:05;11.53;;;10.33;;
6131;SDS011;3097;42.692;23.278;2023-06-14T07:30:30;12.07;;;10.00;;
6131;SDS011;3097;42.692;23.278;2023-06-14T07:32:56;10.57;;;9.57;;
6131;SDS011;3097;42.692;23.278;2023-06-14T07:35:21;10.53;;;9.43;;
6131;SDS011;3097;42.692;23.278;2023-06-14T07:37:47;11.97;;;9.17;;
6131;SDS011;3097;42.692;23.278;2023-06-14T07:40:13;12.50;;;10.07;;
6131;SDS011;3097;42.692;23.278;2023-06-14T07:42:38;12.83;;;9.23;;
6131;SDS011;3097;42.692;23.278;2023-06-14T07:45:04;15.37;;;11.93;;
6131;SDS011;3097;42.692;23.278;2023-06-14T07:47:31;12.30;;;10.50;;
6131;SDS011;3097;42.692;23.278;2023-06-14T07:49:57;13.13;;;10.93;;
6131;SDS011;3097;42.692;23.278;2023-06-14T07:52:23;12.70;;;10.20;;
6131;SDS011;3097;42.692;23.278;2023-06-14T07:54:48;11.47;;;10.27;;
6131;SDS011;3097;42.692;23.278;2023-06-14T07:57:13;11.17;;;10.07;;
6131;SDS011;3097;42.692;23.278;2023-06-14T07:59:39;11.13;;;10.00;;
6131;SDS011;3097;42.692;23.278;2023-06-14T08:02:04;11.57;;;10.37;;
6131;SDS011;3097;42.692;23.278;2023-06-14T08:04:31;10.10;;;9.10;;
6131;SDS011;3097;42.692;23.278;2023-06-14T08:06:56;10.60;;;8.93;;
6131;SDS011;3097;42.692;23.278;2023-06-14T08:09:22;10.87;;;9.40;;
6131;SDS011;3097;42.692;23.278;2023-06-14T08:11:48;14.70;;;11.17;;
6131;SDS011;3097;42.692;23.278;2023-06-14T08:14:13;16.87;;;11.83;;
6131;SDS011;3097;42.692;23.278;2023-06-14T08:16:38;16.07;;;12.00;;
6131;SDS011;3097;42.692;23.278;2023-06-14T08:19:04;17.47;;;11.47;;
6131;SDS011;3097;42.692;23.278;2023-06-14T08:21:30;11.73;;;10.30;;
6131;SDS011;3097;42.692;23.278;2023-06-14T08:23:58;12.73;;;10.47;;
6131;SDS011;3097;42.692;23.278;2023-06-14T08:26:24;18.00;;;10.10;;
6131;SDS011;3097;42.692;23.278;2023-06-14T08:28:54;10.53;;;9.53;;
6131;SDS011;3097;42.692;23.278;2023-06-14T08:31:20;13.10;;;10.37;;
6131;SDS011;3097;42.692;23.278;2023-06-14T08:33:45;12.90;;;10.77;;
6131;SDS011;3097;42.692;23.278;2023-06-14T08:36:11;13.07;;;10.37;;
6131;SDS011;3097;42.692;23.278;2023-06-14T08:38:37;12.57;;;10.43;;
6131;SDS011;3097;42.692;23.278;2023-06-14T08:41:02;12.37;;;10.13;;
6131;SDS011;3097;42.692;23.278;2023-06-14T08:43:31;11.33;;;9.93;;
6131;SDS011;3097;42.692;23.278;2023-06-14T08:46:00;15.97;;;10.67;;
6131;SDS011;3097;42.692;23.278;2023-06-14T08:48:29;11.47;;;9.63;;
6131;SDS011;3097;42.692;23.278;2023-06-14T08:50:59;10.43;;;9.33;;
6131;SDS011;3097;42.692;23.278;2023-06-14T08:53:31;12.90;;;10.67;;
6131;SDS011;3097;42.692;23.278;2023-06-14T08:55:59;12.97;;;11.53;;
6131;SDS011;3097;42.692;23.278;2023-06-14T08:58:27;11.67;;;10.47;;
6131;SDS011;3097;42.692;23.278;2023-06-14T09:00:57;11.37;;;10.03;;
6131;SDS011;3097;42.692;23.278;2023-06-14T09:03:23;11.13;;;9.60;;
6131;SDS011;3097;42.692;23.278;2023-06-14T09:05:53;13.10;;;9.40;;
6131;SDS011;3097;42.692;23.278;2023-06-14T09:08:19;11.73;;;9.97;;
6131;SDS011;3097;42.692;23.278;2023-06-14T09:10:47;14.00;;;10.50;;
6131;SDS011;3097;42.692;23.278;2023-06-14T09:13:12;12.83;;;9.13;;
6131;SDS011;3097;42.692;23.278;2023-06-14T09:15:38;9.73;;;8.83;;
6131;SDS011;3097;42.692;23.278;2023-06-14T09:18:03;12.33;;;9.20;;
6131;SDS011;3097;42.692;23.278;2023-06-14T09:20:29;10.60;;;9.50;;
6131;SDS011;3097;42.692;23.278;2023-06-14T09:22:55;9.70;;;8.77;;
6131;SDS011;3097;42.692;23.278;2023-06-14T09:25:21;10.53;;;9.43;;
6131;SDS011;3097;42.692;23.278;2023-06-14T09:27:47;9.60;;;8.70;;
6131;SDS011;3097;42.692;23.278;2023-06-14T09:30:13;10.70;;;9.60;;
6131;SDS011;3097;42.692;23.278;2023-06-14T09:32:39;10.90;;;9.87;;
6131;SDS011;3097;42.692;23.278;2023-06-14T09:35:08;12.40;;;10.70;;
6131;SDS011;3097;42.692;23.278;2023-06-14T09:37:34;12.70;;;10.67;;
6131;SDS011;3097;42.692;23.278;2023-06-14T09:40:02;11.10;;;10.00;;
6131;SDS011;3097;42.692;23.278;2023-06-14T09:42:28;11.87;;;9.70;;
6131;SDS011;3097;42.692;23.278;2023-06-14T09:44:55;14.13;;;10.33;;
6131;SDS011;3097;42.692;23.278;2023-06-14T09:47:22;10.33;;;9.23;;
6131;SDS011;3097;42.692;23.278;2023-06-14T09:49:51;10.67;;;9.10;;
6131;SDS011;3097;42.692;23.278;2023-06-14T09:52:19;12.50;;;9.67;;
6131;SDS011;3097;42.692;23.278;2023-06-14T09:54:46;11.20;;;9.60;;
6131;SDS011;3097;42.692;23.278;2023-06-14T09:57:16;13.33;;;10.03;;
6131;SDS011;3097;42.692;23.278;2023-06-14T09:59:46;11.03;;;9.63;;
6131;SDS011;3097;42.692;23.278;2023-06-14T10:02:34;11.77;;;9.67;;
6131;SDS011;3097;42.692;23.278;2023-06-14T10:05:06;10.83;;;9.77;;
6131;SDS011;3097;42.692;23.278;2023-06-14T10:07:41;10.80;;;9.80;;
6131;SDS011;3097;42.692;23.278;2023-06-14T10:10:17;14.23;;;10.23;;
6131;SDS011;3097;42.692;23.278;2023-06-14T10:12:43;11.00;;;9.90;;
6131;SDS011;3097;42.692;23.278;2023-06-14T10:15:09;11.97;;;10.30;;
6131;SDS011;3097;42.692;23.278;2023-06-14T10:17:40;12.87;;;11.13;;
6131;SDS011;3097;42.692;23.278;2023-06-14T10:20:33;11.60;;;10.40;;
6131;SDS011;3097;42.692;23.278;2023-06-14T10:26:05;12.37;;;10.23;;
6131;SDS011;3097;42.692;23.278;2023-06-14T10:28:30;12.47;;;10.37;;
6131;SDS011;3097;42.692;23.278;2023-06-14T10:33:33;14.47;;;10.13;;
6131;SDS011;3097;42.692;23.278;2023-06-14T10:38:35;12.83;;;10.63;;
6131;SDS011;3097;42.692;23.278;2023-06-14T10:41:03;10.83;;;9.73;;
6131;SDS011;3097;42.692;23.278;2023-06-14T10:43:32;13.83;;;10.07;;
6131;SDS011;3097;42.692;23.278;2023-06-14T10:48:44;11.60;;;10.23;;
6131;SDS011;3097;42.692;23.278;2023-06-14T10:51:16;12.33;;;9.67;;
6131;SDS011;3097;42.692;23.278;2023-06-14T10:53:46;12.10;;;9.70;;
6131;SDS011;3097;42.692;23.278;2023-06-14T10:56:23;11.73;;;10.23;;
6131;SDS011;3097;42.692;23.278;2023-06-14T10:58:52;11.77;;;10.57;;
6131;SDS011;3097;42.692;23.278;2023-06-14T11:01:19;12.83;;;10.53;;
6131;SDS011;3097;42.692;23.278;2023-06-14T11:03:57;11.93;;;10.10;;
6131;SDS011;3097;42.692;23.278;2023-06-14T11:06:34;10.50;;;9.50;;
6131;SDS011;3097;42.692;23.278;2023-06-14T11:09:38;12.67;;;9.90;;
6131;SDS011;3097;42.692;23.278;2023-06-14T11:12:20;11.00;;;9.83;;
6131;SDS011;3097;42.692;23.278;2023-06-14T11:14:48;14.07;;;10.00;;
6131;SDS011;3097;42.692;23.278;2023-06-14T11:17:13;12.00;;;9.93;;
6131;SDS011;3097;42.692;23.278;2023-06-14T11:19:39;10.57;;;9.47;;
6131;SDS011;3097;42.692;23.278;2023-06-14T11:22:05;10.77;;;9.67;;
6131;SDS011;3097;42.692;23.278;2023-06-14T11:24:32;12.33;;;11.07;;
6131;SDS011;3097;42.692;23.278;2023-06-14T11:26:58;11.73;;;10.50;;
6131;SDS011;3097;42.692;23.278;2023-06-14T11:29:23;10.57;;;9.47;;
6131;SDS011;3097;42.692;23.278;2023-06-14T11:31:49;10.00;;;8.90;;
6131;SDS011;3097;42.692;23.278;2023-06-14T11:34:15;10.53;;;9.50;;
6131;SDS011;3097;42.692;23.278;2023-06-14T11:36:41;10.03;;;9.03;;
6131;SDS011;3097;42.692;23.278;2023-06-14T11:39:08;10.43;;;9.33;;
6131;SDS011;3097;42.692;23.278;2023-06-14T11:41:37;10.63;;;9.67;;
6131;SDS011;3097;42.692;23.278;2023-06-14T11:44:09;10.87;;;9.77;;
6131;SDS011;3097;42.692;23.278;2023-06-14T11:46:35;10.83;;;9.30;;
6131;SDS011;3097;42.692;23.278;2023-06-14T11:49:01;9.67;;;8.77;;
6131;SDS011;3097;42.692;23.278;2023-06-14T11:51:35;9.03;;;8.20;;
6131;SDS011;3097;42.692;23.278;2023-06-14T11:54:04;9.17;;;8.13;;
6131;SDS011;3097;42.692;23.278;2023-06-14T11:56:31;11.23;;;9.20;;
6131;SDS011;3097;42.692;23.278;2023-06-14T11:58:57;9.17;;;8.27;;
6131;SDS011;3097;42.692;23.278;2023-06-14T12:01:23;9.67;;;8.70;;
6131;SDS011;3097;42.692;23.278;2023-06-14T12:03:49;15.93;;;11.97;;
6131;SDS011;3097;42.692;23.278;2023-06-14T12:06:15;9.90;;;9.00;;
6131;SDS011;3097;42.692;23.278;2023-06-14T12:08:43;9.47;;;8.43;;
6131;SDS011;3097;42.692;23.278;2023-06-14T12:11:11;10.17;;;9.03;;
6131;SDS011;3097;42.692;23.278;2023-06-14T12:13:40;9.40;;;8.43;;
6131;SDS011;3097;42.692;23.278;2023-06-14T12:16:10;8.90;;;8.10;;
6131;SDS011;3097;42.692;23.278;2023-06-14T12:18:37;9.30;;;8.47;;
6131;SDS011;3097;42.692;23.278;2023-06-14T12:21:07;10.10;;;8.23;;
6131;SDS011;3097;42.692;23.278;2023-06-14T12:23:44;8.57;;;7.87;;
6131;SDS011;3097;42.692;23.278;2023-06-14T12:28:45;8.37;;;7.57;;
6131;SDS011;3097;42.692;23.278;2023-06-14T12:31:11;10.97;;;8.80;;
6131;SDS011;3097;42.692;23.278;2023-06-14T12:33:41;9.03;;;8.13;;
6131;SDS011;3097;42.692;23.278;2023-06-14T12:36:08;9.40;;;8.17;;
6131;SDS011;3097;42.692;23.278;2023-06-14T12:38:35;8.73;;;7.93;;
6131;SDS011;3097;42.692;23.278;2023-06-14T12:41:01;8.50;;;7.77;;
6131;SDS011;3097;42.692;23.278;2023-06-14T12:43:27;8.40;;;7.70;;
6131;SDS011;3097;42.692;23.278;2023-06-14T12:45:56;7.97;;;7.27;;
6131;SDS011;3097;42.692;23.278;2023-06-14T12:48:21;7.60;;;6.97;;
6131;SDS011;3097;42.692;23.278;2023-06-14T12:50:47;8.23;;;7.43;;
6131;SDS011;3097;42.692;23.278;2023-06-14T12:53:13;8.27;;;7.50;;
6131;SDS011;3097;42.692;23.278;2023-06-14T12:55:38;7.20;;;6.70;;
6131;SDS011;3097;42.692;23.278;2023-06-14T12:58:03;7.93;;;7.23;;
6131;SDS011;3097;42.692;23.278;2023-06-14T13:00:29;7.43;;;6.63;;
6131;SDS011;3097;42.692;23.278;2023-06-14T13:02:55;7.20;;;6.70;;
6131;SDS011;3097;42.692;23.278;2023-06-14T13:05:22;7.30;;;6.73;;
6131;SDS011;3097;42.692;23.278;2023-06-14T13:07:48;7.83;;;6.30;;
6131;SDS011;3097;42.692;23.278;2023-06-14T13:10:13;8.40;;;6.60;;
6131;SDS011;3097;42.692;23.278;2023-06-14T13:12:39;7.80;;;7.10;;
6131;SDS011;3097;42.692;23.278;2023-06-14T13:15:05;8.33;;;7.03;;
6131;SDS011;3097;42.692;23.278;2023-06-14T13:17:31;8.43;;;7.63;;
6131;SDS011;3097;42.692;23.278;2023-06-14T13:19:58;7.20;;;6.70;;
6131;SDS011;3097;42.692;23.278;2023-06-14T13:22:23;7.70;;;7.00;;
6131;SDS011;3097;42.692;23.278;2023-06-14T13:24:49;7.73;;;7.00;;
6131;SDS011;3097;42.692;23.278;2023-06-14T13:27:15;8.03;;;7.43;;
6131;SDS011;3097;42.692;23.278;2023-06-14T13:29:40;8.00;;;6.80;;
6131;SDS011;3097;42.692;23.278;2023-06-14T13:32:06;8.07;;;7.37;;
6131;SDS011;3097;42.692;23.278;2023-06-14T13:34:32;7.20;;;6.60;;
6131;SDS011;3097;42.692;23.278;2023-06-14T13:36:57;7.27;;;6.67;;
6131;SDS011;3097;42.692;23.278;2023-06-14T13:39:24;7.17;;;6.57;;
6131;SDS011;3097;42.692;23.278;2023-06-14T13:41:50;7.50;;;6.80;;
6131;SDS011;3097;42.692;23.278;2023-06-14T13:44:15;8.43;;;6.80;;
6131;SDS011;3097;42.692;23.278;2023-06-14T13:46:43;7.53;;;6.93;;
6131;SDS011;3097;42.692;23.278;2023-06-14T13:49:10;10.00;;;6.87;;
6131;SDS011;3097;42.692;23.278;2023-06-14T13:51:37;7.20;;;6.67;;
6131;SDS011;3097;42.692;23.278;2023-06-14T13:54:02;7.47;;;6.70;;
6131;SDS011;3097;42.692;23.278;2023-06-14T13:56:28;7.50;;;6.87;;
6131;SDS011;3097;42.692;23.278;2023-06-14T13:58:55;8.53;;;7.13;;
6131;SDS011;3097;42.692;23.278;2023-06-14T14:01:21;7.40;;;6.70;;
6131;SDS011;3097;42.692;23.278;2023-06-14T14:03:47;8.30;;;7.50;;
6131;SDS011;3097;42.692;23.278;2023-06-14T14:06:15;9.67;;;7.93;;
6131;SDS011;3097;42.692;23.278;2023-06-14T14:08:41;8.87;;;8.03;;
6131;SDS011;3097;42.692;23.278;2023-06-14T14:11:06;10.57;;;7.97;;
6131;SDS011;3097;42.692;23.278;2023-06-14T14:13:35;12.97;;;7.53;;
6131;SDS011;3097;42.692;23.278;2023-06-14T14:16:02;8.40;;;7.60;;
6131;SDS011;3097;42.692;23.278;2023-06-14T14:18:28;8.40;;;7.60;;
6131;SDS011;3097;42.692;23.278;2023-06-14T14:20:57;7.80;;;7.00;;
6131;SDS011;3097;42.692;23.278;2023-06-14T14:23:23;7.90;;;7.10;;
6131;SDS011;3097;42.692;23.278;2023-06-14T14:25:48;8.23;;;7.43;;
6131;SDS011;3097;42.692;23.278;2023-06-14T14:28:14;10.90;;;7.17;;
6131;SDS011;3097;42.692;23.278;2023-06-14T14:30:41;7.83;;;7.13;;
6131;SDS011;3097;42.692;23.278;2023-06-14T14:33:07;7.20;;;6.60;;
6131;SDS011;3097;42.692;23.278;2023-06-14T14:35:33;8.60;;;7.33;;
6131;SDS011;3097;42.692;23.278;2023-06-14T14:37:58;8.27;;;7.37;;
6131;SDS011;3097;42.692;23.278;2023-06-14T14:40:24;6.83;;;6.23;;
6131;SDS011;3097;42.692;23.278;2023-06-14T14:42:49;7.23;;;6.53;;
6131;SDS011;3097;42.692;23.278;2023-06-14T14:45:16;7.10;;;6.33;;
6131;SDS011;3097;42.692;23.278;2023-06-14T14:47:42;6.63;;;6.10;;
6131;SDS011;3097;42.692;23.278;2023-06-14T14:50:07;6.73;;;6.13;;
6131;SDS011;3097;42.692;23.278;2023-06-14T14:52:36;7.20;;;6.50;;
6131;SDS011;3097;42.692;23.278;2023-06-14T14:55:01;7.10;;;6.50;;
6131;SDS011;3097;42.692;23.278;2023-06-14T14:57:27;6.97;;;6.37;;
6131;SDS011;3097;42.692;23.278;2023-06-14T14:59:53;6.90;;;6.30;;
6131;SDS011;3097;42.692;23.278;2023-06-14T15:02:18;6.87;;;6.27;;
6131;SDS011;3097;42.692;23.278;2023-06-14T15:04:44;7.63;;;6.90;;
6131;SDS011;3097;42.692;23.278;2023-06-14T15:07:11;6.80;;;6.20;;